• Join FlightAware (Why Join?)
  • Login
  • US Flag 
03:03AM EST


 

Airport Tracker/Info


-or-


 

Live Flight TrackerFlight Track Log ✈ WIG7117 ✈ 16-Jul-2013 ✈ KALB - KSYR

Flight Track Log - Related Links

Times and Time Zones

All times are in EDT time to prevent confusion due to time zone crossing. See the WIG7117 flight status page for this flight to view local times or setup timezone preferences in your user account.

Time Position Orientation Groundspeed Altitude Reporting Facility
EDT Latitude Longitude Course Direction KTS MPH feet Rate Location/Type
10:24PM 42.7547 -73.8086 309° West 83 96 900  Level Boston Center
10:25PM 42.7753 -73.8431 309° West 116 133 2,100 900 Climbing Boston Center
10:26PM 42.7872 -73.8858 291° West 123 142 3,000 840 Climbing Boston Center
10:27PM 42.7969 -73.9369 285° West 134 154 3,900 780 Climbing Boston Center
10:28PM 42.8089 -73.9853 289° West 131 151 4,600 720 Climbing Boston Center
10:29PM 42.8186 -74.0308 286° West 132 152 5,400 840 Climbing Boston Center
10:30PM 42.8264 -74.0792 282° West 130 150 6,300 780 Climbing Boston Center
10:31PM 42.8339 -74.1275 282° West 130 150 7,000 660 Climbing Boston Center
10:32PM 42.8436 -74.1789 284° West 135 155 7,700 480 Climbing Boston Center
10:33PM 42.8489 -74.2300 278° West 143 165 8,000 120 Climbing Boston Center
10:34PM 42.8564 -74.2953 279° West 158 182 8,000  Level Boston Center
10:35PM 42.8639 -74.3350 284° West 155 178 8,100  Climbing Boston Center
10:36PM 42.8714 -74.3892 281° West 151 174 8,100  Level Boston Center
10:37PM 42.8808 -74.4489 282° West 152 175 8,100  Level Boston Center
10:38PM 42.8881 -74.5031 280° West 153 176 8,100 -60 Level Boston Center
10:39PM 42.8975 -74.5600 283° West 154 177 8,000 -60 Descending Boston Center
10:40PM 42.9069 -74.6172 283° West 152 175 8,000  Level Boston Center
10:41PM 42.9142 -74.6769 279° West 152 175 8,100  Climbing Boston Center
10:42PM 42.9233 -74.7397 281° West 153 176 8,100  Level Boston Center
10:43PM 42.9325 -74.7939 283° West 152 175 8,100  Level Boston Center
10:44PM 42.9397 -74.8508 280° West 153 176 8,100  Level Boston Center
10:45PM 42.9486 -74.9164 281° West 151 174 8,100  Level Boston Center
10:46PM 42.9578 -74.9736 282° West 150 173 8,100  Level Boston Center
10:47PM 42.9650 -75.0278 280° West 149 171 8,100  Level Boston Center
10:48PM 42.9742 -75.0878 282° West 151 174 8,100  Level Boston Center
10:49PM 42.9833 -75.1392 284° West 151 174 8,100  Level Boston Center
10:50PM 42.9881 -75.1964 276° West 152 175 8,100  Level Boston Center
10:51PM 42.9972 -75.2564 282° West 154 177 8,100 -180 Level Boston Center
10:52PM 43.0039 -75.3133 279° West 155 178 7,800 -660 Descending Boston Center
10:53PM 43.0147 -75.3822 282° West 172 198 6,800 -960 Descending Boston Center
10:54PM 43.0236 -75.4450 281° West 180 207 5,900 -840 Descending Boston Center
10:55PM 43.0322 -75.5108 280° West 174 200 5,200 -780 Descending Boston Center
10:56PM 43.0386 -75.5764 278° West 171 197 4,400 -600 Descending Boston Center
10:57PM 43.0494 -75.6394 283° West 170 196 4,000 -240 Descending Boston Center
10:58PM 43.0564 -75.6939 280° West 155 178 4,000  Level Boston Center
10:59PM 43.0653 -75.7483 283° West 148 170 4,000  Level Boston Center
11:00PM 43.0719 -75.7969 281° West 148 170 4,000 -420 Level Boston Center
11:01PM 43.0725 -75.8567 271° West 169 194 3,300 -600 Descending Boston Center
11:02PM 43.0706 -75.9192 268° West 164 189 2,800 -600 Descending Boston Center
11:03PM 43.0708 -75.9761 270° West 153 176 2,100 -660 Descending Boston Center
11:04PM 43.0772 -76.0361 278° West 155 178 1,500 -780 Descending Boston Center
11:05PM 43.0986 -76.0886 299° West 163 188 600 -900 Descending Boston Center